USAO - Climax

:s10612   :153s   :190 :2022-09-08 23:58

Tags: SEGA

Searchs10612from client to download

Version Length Status Hot Creator Updated

6K BASIC Lv.9 153 Stable 1226 Biemote 2022-05-17 12:32

6K ADVANCED(Modified Ver.) Lv.14 153 Stable 994 Shioriko_ 2022-05-17 12:32

6K HARD Lv.19 153 Stable 2610 Biemote 2022-05-17 12:32

6K EXPERT Lv.25 153 Stable 1561 Biemote 2022-05-17 12:31

6K MASTER Lv.32 153 Stable 1391 Biemote 2022-05-17 12:31

4K Basic Lv.9 153 Stable 7619 Endermeng 2020-05-28 11:21

4K Advanced Lv.18 102 Stable 40064 Endermeng 2020-05-28 11:21

4K Expert Lv.22 153 Stable 84813 Endermeng 2020-05-28 11:21

4K Master Lv.27 135 Stable 55383 Endermeng 2020-05-28 11:21

Extreme Lv.30 153 Alpha 8 Kaede5890 2022-08-30 21:26

Caaaat‘s 4 153 Alpha 35 Caaaat 2021-08-26 01:28

Dance Cube Hard Lv.30 153 Alpha 108 BZAIG 2021-08-16 13:34

Joke Lv.28 153 Alpha 59 lihuaxue 2021-08-08 17:19

Extreme Lv.28 153 Alpha 511 At2m 2021-07-23 03:41

4K Hard Lv.19 153 Alpha 643 miyaoda 2021-07-11 19:02

4K ADVANCED Lv.23 153 Alpha 3717 MWCofficial 2021-07-10 00:30

Dance Cube Xtreme Lv.30 153 Alpha 234 Khdkah 2021-06-22 03:20

Hard 153 Alpha 236 Flyingfish250 2021-06-14 17:14

MASTER 153 Alpha 167 fu11boy 2021-05-28 17:53

Extreme 152 Alpha 0 NaRuZ 2021-05-28 09:40

4K Master Lv.27 153 Alpha 233 DJguren 2021-05-19 17:40

Taiko Oni 153 Alpha 64 Lody-YL 2021-05-14 14:49

slide Lv.20 153 Alpha 510 dltjrwl 2021-04-02 20:53

Oni ★10 152 Alpha 3 yt1 2021-01-26 12:29

MASTER Lv.20 153 Alpha 0 Ferais 2021-01-22 20:21

4K World'end(?) 153 Alpha 83 hakanai 2021-01-15 15:40

4K HARD Lv24 153 Alpha 221 solter 2020-12-15 09:24

Dance Cube Hard Lv.27 153 Alpha 398 Khdkah 2020-12-07 05:48

oni.☆10 153 Alpha 41 RYOEN 2020-09-07 01:30

4K Master Lv.26 153 Alpha 312 [email protected] 2020-09-06 23:29

oni.☆10 153 Alpha 19 akasatana 2020-09-06 19:19

4K Lv.28 153 Alpha 2305 Akaaoihito 2020-09-03 19:04

4K MASER Lv.24 153 Alpha 3343 2zuMI 2020-09-01 23:13

taiko–extram27 153 Alpha 16 mar1mo 2020-08-23 20:44

Taiko. Extreme. Lv27 121 Alpha 94 hanamie 2020-08-16 08:48

Extreme Lv.25 153 Alpha 390 3NE07 2020-05-28 11:32

4K Hard Lv.24 153 Alpha 216 Daisy3589 2020-05-20 14:54

4K 153 Alpha 83 kame490 2020-05-13 15:29

4K Climax Lv15 153 Alpha 337 Runachan 2020-04-20 20:28

4K Climax Lv.26 153 Alpha 947 SotF 2020-04-19 19:46

Extreme 154 Alpha 43 Maebara 2020-04-19 14:55

advance 153 Alpha 233 yozyo 2020-04-18 10:27

4K Lv.25 153 Alpha 168 kayaalpha 2020-03-13 23:10

4kkkkkkkkkk 153 Alpha 27 asuniki 2020-03-13 23:04

4K 153 Alpha 3 asuniki 2020-03-13 23:03

Oni 153 Alpha 40 Mio5293 2020-02-29 15:43

Extreme 153 Alpha 6 050 2020-02-06 11:11

chaos 153 Alpha 30 neomanzi 2019-12-22 10:45

master13+ 153 Alpha 2173 sayah 2019-11-26 15:51

4K MASTER Lv.26 153 Alpha 2649 November0 2019-11-25 17:53

Beta 153 Alpha 14 @atlas 2019-10-24 18:38

Hard 151 Alpha 0 @atlas 2019-10-17 23:05

☆10 153 Alpha 81 Popom 2019-10-12 23:14

Oni (☆10+) Lv.30 153 Alpha 111 goldrat7 2019-10-05 06:54

Lv.20 153 Alpha 5 UMMenma 2019-09-01 15:50

4K Advanced Lv.18 153 Alpha 2043 kirihayuzu 2019-08-08 18:58

4K Easy Lv.8 153 Alpha 116 kirihayuzu 2019-08-08 18:58

4K Hard Lv.26 153 Alpha 1171 kirihayuzu 2019-08-08 18:57

Hard Lv15 153 Alpha 652 syun256 2019-08-02 07:33

4K Climax Lv.27 153 Alpha 243 kanten_nhh 2019-05-27 20:27

4K Challenging Lv.22 153 Alpha 623 aya 2019-05-07 20:21

Master 13+ 153 Alpha 3067 Else 2019-05-06 19:58

4K EXPERT Lv.21 153 Alpha 1298 Kuragesan 2019-05-03 14:55

4K ADVANCE Lv.18 153 Alpha 1367 Kuragesan 2019-05-03 14:49

Easy Lv.6 62 Alpha 80 nooooooby 2019-04-05 16:50

Extreme Lv.18 153 Alpha 717 nooooooby 2019-04-05 06:13

4K Lv.28 153 Alpha 210 Pheroacheprpr2 2019-03-18 11:46

Master 13+ (lv27) 100 Alpha 206 huwattei 2019-03-10 14:36

4K CHUNITHM Reproduced 81 Alpha 1734 Amakake 2019-03-06 17:54

4K MASTER Lv.26 153 Alpha 483 Kuragesan 2019-03-04 13:43

4k normal 153 Alpha 121 shadowolf 2019-03-03 17:21

4k hard 153 Alpha 74 shadowolf 2019-02-27 21:00

EXPERT[] Lv.19 128 Alpha 448 Shitoha 2019-02-25 04:48

MASTER[] Lv.26 153 Alpha 118 Shitoha 2019-02-25 04:42

4K Lv.28 153 Alpha 127 KOSMOS 2019-02-21 20:56

Metadata

Title: Climax

Artist: USAO

BPM: 190

Length: 153s

Source: CHUNITHM AMAZON

Sign inX

Sign in

Forgot Password? Register

Wait...